ΕΜΥ, Εθνική Μετεωρολογική Υπηρεσία - Δελτία Καιρού, Προγνώσεις

ΑΕΡΟΝΑΥΤΙΛΙΑ

GREEK AIRPORTS CODES

LGHI 291250Z 01012KT 320V060 9999 FEW020 29/20 Q1010=

EUROPEAN AIRPORTS CODES

LFPO 291230Z 23009G24KT 180V290 CAVOK 25/10 Q1014=